sensor_id;sensor_type;location;lat;lon;timestamp;pressure;altitude;pressure_sealevel;temperature;humidity
29505;BME280;16452;54.174;12.092;2023-01-27T00:00:21;102365.47;;;5.82;100.00
29505;BME280;16452;54.174;12.092;2023-01-27T00:02:48;102349.94;;;5.88;100.00
29505;BME280;16452;54.174;12.092;2023-01-27T00:05:15;102361.16;;;5.79;100.00
29505;BME280;16452;54.174;12.092;2023-01-27T00:07:42;102349.09;;;5.80;100.00
29505;BME280;16452;54.174;12.092;2023-01-27T00:10:16;102349.91;;;5.84;100.00
29505;BME280;16452;54.174;12.092;2023-01-27T00:12:44;102349.09;;;5.80;100.00
29505;BME280;16452;54.174;12.092;2023-01-27T00:15:30;102358.63;;;5.75;100.00
29505;BME280;16452;54.174;12.092;2023-01-27T00:17:57;102362.88;;;5.82;100.00
29505;BME280;16452;54.174;12.092;2023-01-27T00:20:23;102356.00;;;5.78;100.00
29505;BME280;16452;54.174;12.092;2023-01-27T00:23:23;102371.47;;;5.84;100.00
29505;BME280;16452;54.174;12.092;2023-01-27T00:26:12;102363.84;;;5.64;100.00
29505;BME280;16452;54.174;12.092;2023-01-27T00:28:39;102355.09;;;5.84;100.00
29505;BME280;16452;54.174;12.092;2023-01-27T00:31:07;102363.81;;;5.70;100.00
29505;BME280;16452;54.174;12.092;2023-01-27T00:33:52;102355.25;;;5.64;100.00
29505;BME280;16452;54.174;12.092;2023-01-27T00:36:21;102375.81;;;5.79;100.00
29505;BME280;16452;54.174;12.092;2023-01-27T00:38:47;102356.91;;;5.71;100.00
29505;BME280;16452;54.174;12.092;2023-01-27T00:41:13;102358.66;;;5.67;100.00
29505;BME280;16452;54.174;12.092;2023-01-27T00:43:54;102365.53;;;5.67;100.00
29505;BME280;16452;54.174;12.092;2023-01-27T00:46:22;102366.44;;;5.61;100.00
29505;BME280;16452;54.174;12.092;2023-01-27T00:48:49;102372.47;;;5.60;100.00
29505;BME280;16452;54.174;12.092;2023-01-27T00:51:19;102378.50;;;5.64;100.00
29505;BME280;16452;54.174;12.092;2023-01-27T00:53:45;102366.41;;;5.67;100.00
29505;BME280;16452;54.174;12.092;2023-01-27T00:56:11;102365.63;;;5.56;100.00
29505;BME280;16452;54.174;12.092;2023-01-27T00:58:37;102381.09;;;5.59;100.00
29505;BME280;16452;54.174;12.092;2023-01-27T01:01:07;102379.38;;;5.63;100.00
29505;BME280;16452;54.174;12.092;2023-01-27T01:03:34;102375.91;;;5.64;100.00
29505;BME280;16452;54.174;12.092;2023-01-27T01:06:04;102387.13;;;5.63;100.00
29505;BME280;16452;54.174;12.092;2023-01-27T01:08:32;102382.84;;;5.57;100.00
29505;BME280;16452;54.174;12.092;2023-01-27T01:10:58;102392.34;;;5.52;100.00
29505;BME280;16452;54.174;12.092;2023-01-27T01:13:25;102389.72;;;5.61;100.00
29505;BME280;16452;54.174;12.092;2023-01-27T01:15:55;102394.91;;;5.57;100.00
29505;BME280;16452;54.174;12.092;2023-01-27T01:18:22;102405.22;;;5.61;100.00
29505;BME280;16452;54.174;12.092;2023-01-27T01:20:48;102412.16;;;5.52;100.00
29505;BME280;16452;54.174;12.092;2023-01-27T01:23:14;102416.38;;;5.66;100.00
29505;BME280;16452;54.174;12.092;2023-01-27T01:25:41;102420.78;;;5.51;100.00
29505;BME280;16452;54.174;12.092;2023-01-27T01:28:10;102428.50;;;5.55;100.00
29505;BME280;16452;54.174;12.092;2023-01-27T01:30:36;102425.09;;;5.52;100.00
29505;BME280;16452;54.174;12.092;2023-01-27T01:33:03;102428.50;;;5.57;100.00
29505;BME280;16452;54.174;12.092;2023-01-27T01:35:29;102426.81;;;5.50;100.00
29505;BME280;16452;54.174;12.092;2023-01-27T01:37:54;102431.09;;;5.54;100.00
29505;BME280;16452;54.174;12.092;2023-01-27T01:40:21;102426.78;;;5.54;100.00
29505;BME280;16452;54.174;12.092;2023-01-27T01:53:26;102432.88;;;5.47;100.00
29505;BME280;16452;54.174;12.092;2023-01-27T01:55:57;102432.00;;;5.42;100.00
29505;BME280;16452;54.174;12.092;2023-01-27T01:58:25;102430.28;;;5.44;100.00
29505;BME280;16452;54.174;12.092;2023-01-27T02:00:53;102433.69;;;5.57;100.00
29505;BME280;16452;54.174;12.092;2023-01-27T02:03:22;102438.00;;;5.52;100.00
29505;BME280;16452;54.174;12.092;2023-01-27T02:05:49;102437.97;;;5.61;100.00
29505;BME280;16452;54.174;12.092;2023-01-27T02:08:26;102444.00;;;5.60;100.00
29505;BME280;16452;54.174;12.092;2023-01-27T02:10:54;102438.91;;;5.43;100.00
29505;BME280;16452;54.174;12.092;2023-01-27T02:13:21;102447.50;;;5.45;100.00
29505;BME280;16452;54.174;12.092;2023-01-27T02:15:46;102442.34;;;5.42;100.00
29505;BME280;16452;54.174;12.092;2023-01-27T02:18:12;102452.69;;;5.39;100.00
29505;BME280;16452;54.174;12.092;2023-01-27T02:20:44;102444.84;;;5.60;100.00
29505;BME280;16452;54.174;12.092;2023-01-27T02:28:54;102444.88;;;5.54;100.00
29505;BME280;16452;54.174;12.092;2023-01-27T02:31:21;102442.28;;;5.56;100.00
29505;BME280;16452;54.174;12.092;2023-01-27T02:33:46;102450.94;;;5.53;100.00
29505;BME280;16452;54.174;12.092;2023-01-27T02:36:15;102451.75;;;5.61;100.00
29505;BME280;16452;54.174;12.092;2023-01-27T02:38:50;102463.81;;;5.62;100.00
29505;BME280;16452;54.174;12.092;2023-01-27T02:41:28;102469.84;;;5.61;100.00
29505;BME280;16452;54.174;12.092;2023-01-27T02:43:56;102469.06;;;5.41;100.00
29505;BME280;16452;54.174;12.092;2023-01-27T02:46:22;102466.47;;;5.43;100.00
29505;BME280;16452;54.174;12.092;2023-01-27T02:48:48;102473.34;;;5.44;100.00
29505;BME280;16452;54.174;12.092;2023-01-27T02:51:14;102494.03;;;5.36;100.00
29505;BME280;16452;54.174;12.092;2023-01-27T02:53:39;102472.53;;;5.31;100.00
29505;BME280;16452;54.174;12.092;2023-01-27T02:56:05;102476.78;;;5.49;100.00
29505;BME280;16452;54.174;12.092;2023-01-27T02:58:31;102475.09;;;5.37;100.00
29505;BME280;16452;54.174;12.092;2023-01-27T03:00:58;102478.50;;;5.51;100.00
29505;BME280;16452;54.174;12.092;2023-01-27T03:03:24;102477.69;;;5.31;100.00
29505;BME280;16452;54.174;12.092;2023-01-27T03:05:49;102479.41;;;5.38;100.00
29505;BME280;16452;54.174;12.092;2023-01-27T03:08:17;102490.59;;;5.46;100.00
29505;BME280;16452;54.174;12.092;2023-01-27T03:10:43;102482.84;;;5.40;100.00
29505;BME280;16452;54.174;12.092;2023-01-27T03:13:09;102503.53;;;5.38;100.00
29505;BME280;16452;54.174;12.092;2023-01-27T03:15:38;102482.81;;;5.49;100.00
29505;BME280;16452;54.174;12.092;2023-01-27T03:18:22;102485.44;;;5.34;100.00
29505;BME280;16452;54.174;12.092;2023-01-27T03:20:48;102500.97;;;5.25;100.00
29505;BME280;16452;54.174;12.092;2023-01-27T03:23:17;102498.38;;;5.32;100.00
29505;BME280;16452;54.174;12.092;2023-01-27T03:25:46;102496.63;;;5.36;100.00
29505;BME280;16452;54.174;12.092;2023-01-27T03:28:13;102489.78;;;5.27;100.00
29505;BME280;16452;54.174;12.092;2023-01-27T03:30:40;102494.94;;;5.27;100.00
29505;BME280;16452;54.174;12.092;2023-01-27T03:33:06;102488.03;;;5.31;100.00
29505;BME280;16452;54.174;12.092;2023-01-27T03:35:37;102505.25;;;5.32;100.00
29505;BME280;16452;54.174;12.092;2023-01-27T03:38:16;102514.75;;;5.34;100.00
29505;BME280;16452;54.174;12.092;2023-01-27T03:41:04;102518.19;;;5.24;100.00
29505;BME280;16452;54.174;12.092;2023-01-27T03:43:48;102516.47;;;5.19;100.00
29505;BME280;16452;54.174;12.092;2023-01-27T03:46:32;102508.78;;;5.01;100.00
29505;BME280;16452;54.174;12.092;2023-01-27T03:48:58;102525.97;;;5.09;100.00
29505;BME280;16452;54.174;12.092;2023-01-27T03:51:25;102518.25;;;5.00;100.00
29505;BME280;16452;54.174;12.092;2023-01-27T03:53:52;102525.09;;;4.96;100.00
29505;BME280;16452;54.174;12.092;2023-01-27T03:56:20;102522.53;;;5.00;100.00
29505;BME280;16452;54.174;12.092;2023-01-27T03:58:47;102540.59;;;5.12;100.00
29505;BME280;16452;54.174;12.092;2023-01-27T04:01:20;102537.16;;;5.14;100.00
29505;BME280;16452;54.174;12.092;2023-01-27T04:03:48;102527.69;;;5.09;100.00
29505;BME280;16452;54.174;12.092;2023-01-27T04:06:36;102519.94;;;5.10;100.00
29505;BME280;16452;54.174;12.092;2023-01-27T04:09:35;102525.97;;;5.15;100.00
29505;BME280;16452;54.174;12.092;2023-01-27T04:12:04;102530.28;;;5.12;100.00
29505;BME280;16452;54.174;12.092;2023-01-27T04:14:35;102516.50;;;5.08;100.00
29505;BME280;16452;54.174;12.092;2023-01-27T04:17:11;102518.22;;;5.08;100.00
29505;BME280;16452;54.174;12.092;2023-01-27T04:19:38;102519.06;;;5.02;100.00
29505;BME280;16452;54.174;12.092;2023-01-27T04:22:04;102519.97;;;4.87;100.00
29505;BME280;16452;54.174;12.092;2023-01-27T04:24:31;102530.28;;;5.03;100.00
29505;BME280;16452;54.174;12.092;2023-01-27T04:27:03;102516.50;;;5.08;100.00
29505;BME280;16452;54.174;12.092;2023-01-27T04:29:33;102523.41;;;5.06;100.00
29505;BME280;16452;54.174;12.092;2023-01-27T04:32:00;102532.88;;;5.12;100.00
29505;BME280;16452;54.174;12.092;2023-01-27T04:34:27;102524.25;;;4.99;100.00
29505;BME280;16452;54.174;12.092;2023-01-27T04:36:54;102531.13;;;5.18;100.00
29505;BME280;16452;54.174;12.092;2023-01-27T04:39:20;102532.81;;;5.19;100.00
29505;BME280;16452;54.174;12.092;2023-01-27T04:41:47;102538.84;;;5.24;100.00
29505;BME280;16452;54.174;12.092;2023-01-27T04:44:14;102535.44;;;5.22;100.00
29505;BME280;16452;54.174;12.092;2023-01-27T04:46:40;102551.78;;;5.26;100.00
29505;BME280;16452;54.174;12.092;2023-01-27T04:49:07;102538.00;;;5.22;100.00
29505;BME280;16452;54.174;12.092;2023-01-27T04:51:33;102537.13;;;5.31;100.00
29505;BME280;16452;54.174;12.092;2023-01-27T04:53:59;102537.13;;;5.26;100.00
29505;BME280;16452;54.174;12.092;2023-01-27T04:56:39;102540.53;;;5.42;100.00
29505;BME280;16452;54.174;12.092;2023-01-27T04:59:11;102544.88;;;5.28;100.00
29505;BME280;16452;54.174;12.092;2023-01-27T05:01:37;102538.84;;;5.20;100.00
29505;BME280;16452;54.174;12.092;2023-01-27T05:04:03;102538.03;;;5.12;100.00
29505;BME280;16452;54.174;12.092;2023-01-27T05:06:30;102559.53;;;5.23;100.00
29505;BME280;16452;54.174;12.092;2023-01-27T05:08:55;102557.81;;;5.02;100.00
29505;BME280;16452;54.174;12.092;2023-01-27T05:11:22;102552.63;;;5.20;100.00
29505;BME280;16452;54.174;12.092;2023-01-27T05:13:48;102544.03;;;5.20;100.00
29505;BME280;16452;54.174;12.092;2023-01-27T05:16:17;102543.19;;;5.07;100.00
29505;BME280;16452;54.174;12.092;2023-01-27T05:18:48;102547.50;;;5.17;100.00
29505;BME280;16452;54.174;12.092;2023-01-27T05:21:22;102548.34;;;5.19;100.00
29505;BME280;16452;54.174;12.092;2023-01-27T05:23:48;102546.63;;;5.14;100.00
29505;BME280;16452;54.174;12.092;2023-01-27T05:26:21;102557.81;;;5.20;100.00
29505;BME280;16452;54.174;12.092;2023-01-27T05:28:49;102555.25;;;5.11;100.00
29505;BME280;16452;54.174;12.092;2023-01-27T05:31:22;102561.25;;;5.19;100.00
29505;BME280;16452;54.174;12.092;2023-01-27T05:33:51;102567.28;;;5.09;100.00
29505;BME280;16452;54.174;12.092;2023-01-27T05:36:19;102564.72;;;5.03;100.00
29505;BME280;16452;54.174;12.092;2023-01-27T05:38:45;102570.75;;;4.99;100.00
29505;BME280;16452;54.174;12.092;2023-01-27T05:41:13;102587.97;;;5.11;100.00
29505;BME280;16452;54.174;12.092;2023-01-27T05:43:41;102581.06;;;5.02;100.00
29505;BME280;16452;54.174;12.092;2023-01-27T05:46:13;102583.63;;;4.96;100.00
29505;BME280;16452;54.174;12.092;2023-01-27T05:48:43;102585.34;;;5.02;100.00
29505;BME280;16452;54.174;12.092;2023-01-27T05:51:10;102587.94;;;4.95;100.00
29505;BME280;16452;54.174;12.092;2023-01-27T05:53:36;102587.94;;;4.97;100.00
29505;BME280;16452;54.174;12.092;2023-01-27T05:56:03;102587.09;;;4.96;100.00
29505;BME280;16452;54.174;12.092;2023-01-27T05:58:30;102587.94;;;5.03;100.00
29505;BME280;16452;54.174;12.092;2023-01-27T06:01:09;102595.69;;;4.95;100.00
29505;BME280;16452;54.174;12.092;2023-01-27T06:03:36;102588.78;;;4.90;100.00
29505;BME280;16452;54.174;12.092;2023-01-27T06:06:03;102594.84;;;4.98;100.00
29505;BME280;16452;54.174;12.092;2023-01-27T06:08:30;102597.44;;;5.12;100.00
29505;BME280;16452;54.174;12.092;2023-01-27T06:10:57;102595.72;;;5.00;100.00
29505;BME280;16452;54.174;12.092;2023-01-27T06:13:23;102596.56;;;4.99;100.00
29505;BME280;16452;54.174;12.092;2023-01-27T06:15:50;102592.25;;;5.22;100.00
29505;BME280;16452;54.174;12.092;2023-01-27T06:18:17;102605.19;;;5.18;100.00
29505;BME280;16452;54.174;12.092;2023-01-27T06:20:43;102597.41;;;5.07;100.00
29505;BME280;16452;54.174;12.092;2023-01-27T06:23:12;102613.78;;;5.14;100.00
29505;BME280;16452;54.174;12.092;2023-01-27T06:25:46;102620.66;;;5.03;100.00
29505;BME280;16452;54.174;12.092;2023-01-27T06:28:13;102619.78;;;4.91;100.00
29505;BME280;16452;54.174;12.092;2023-01-27T06:30:40;102624.97;;;4.88;100.00
29505;BME280;16452;54.174;12.092;2023-01-27T06:33:07;102621.50;;;4.95;100.00
29505;BME280;16452;54.174;12.092;2023-01-27T06:35:35;102625.81;;;4.98;100.00
29505;BME280;16452;54.174;12.092;2023-01-27T06:38:07;102624.97;;;4.97;100.00
29505;BME280;16452;54.174;12.092;2023-01-27T06:40:34;102630.09;;;4.84;100.00
29505;BME280;16452;54.174;12.092;2023-01-27T06:43:00;102643.91;;;4.93;100.00
29505;BME280;16452;54.174;12.092;2023-01-27T06:45:26;102647.34;;;5.03;100.00
29505;BME280;16452;54.174;12.092;2023-01-27T06:47:58;102638.75;;;4.89;100.00
29505;BME280;16452;54.174;12.092;2023-01-27T06:50:31;102644.78;;;5.09;100.00
29505;BME280;16452;54.174;12.092;2023-01-27T06:53:03;102650.78;;;5.02;100.00
29505;BME280;16452;54.174;12.092;2023-01-27T06:55:30;102649.91;;;4.88;100.00
29505;BME280;16452;54.174;12.092;2023-01-27T06:57:56;102653.38;;;4.94;100.00
29505;BME280;16452;54.174;12.092;2023-01-27T07:00:22;102647.31;;;4.95;100.00
29505;BME280;16452;54.174;12.092;2023-01-27T07:02:48;102655.91;;;4.79;100.00
29505;BME280;16452;54.174;12.092;2023-01-27T07:05:14;102655.94;;;4.81;100.00
29505;BME280;16452;54.174;12.092;2023-01-27T07:07:40;102668.81;;;4.70;100.00
29505;BME280;16452;54.174;12.092;2023-01-27T07:10:06;102673.16;;;4.97;100.00
29505;BME280;16452;54.174;12.092;2023-01-27T07:12:32;102672.28;;;4.95;100.00
29505;BME280;16452;54.174;12.092;2023-01-27T07:15:06;102677.44;;;4.95;100.00
29505;BME280;16452;54.174;12.092;2023-01-27T07:17:33;102690.34;;;4.90;100.00
29505;BME280;16452;54.174;12.092;2023-01-27T07:19:59;102683.53;;;5.05;100.00
29505;BME280;16452;54.174;12.092;2023-01-27T07:22:25;102686.06;;;4.88;100.00
29505;BME280;16452;54.174;12.092;2023-01-27T07:24:51;102683.44;;;4.73;100.00
29505;BME280;16452;54.174;12.092;2023-01-27T07:27:17;102680.88;;;4.80;100.00
29505;BME280;16452;54.174;12.092;2023-01-27T07:29:42;102682.63;;;4.90;100.00
29505;BME280;16452;54.174;12.092;2023-01-27T07:32:08;102681.75;;;4.87;100.00
29505;BME280;16452;54.174;12.092;2023-01-27T07:34:34;102691.16;;;4.64;100.00
29505;BME280;16452;54.174;12.092;2023-01-27T07:37:00;102678.31;;;4.97;100.00
29505;BME280;16452;54.174;12.092;2023-01-27T07:39:26;102682.59;;;4.81;100.00
29505;BME280;16452;54.174;12.092;2023-01-27T07:41:52;102682.63;;;4.83;100.00
29505;BME280;16452;54.174;12.092;2023-01-27T07:44:18;102676.56;;;4.76;100.00
29505;BME280;16452;54.174;12.092;2023-01-27T07:46:43;102680.84;;;4.73;100.00
29505;BME280;16452;54.174;12.092;2023-01-27T07:49:09;102675.69;;;4.68;100.00
29505;BME280;16452;54.174;12.092;2023-01-27T07:51:39;102677.47;;;4.96;100.00
29505;BME280;16452;54.174;12.092;2023-01-27T07:54:05;102675.75;;;4.92;100.00
29505;BME280;16452;54.174;12.092;2023-01-27T07:56:31;102684.34;;;4.91;100.00
29505;BME280;16452;54.174;12.092;2023-01-27T07:58:57;102695.53;;;4.92;100.00
29505;BME280;16452;54.174;12.092;2023-01-27T08:01:23;102695.53;;;4.95;100.00
29505;BME280;16452;54.174;12.092;2023-01-27T08:03:49;102694.66;;;4.91;100.00
29505;BME280;16452;54.174;12.092;2023-01-27T08:06:15;102692.97;;;4.92;100.00
29505;BME280;16452;54.174;12.092;2023-01-27T08:08:41;102698.97;;;4.89;100.00
29505;BME280;16452;54.174;12.092;2023-01-27T08:11:09;102704.19;;;5.06;100.00
29505;BME280;16452;54.174;12.092;2023-01-27T08:13:36;102710.22;;;5.05;100.00
29505;BME280;16452;54.174;12.092;2023-01-27T08:16:04;102711.84;;;4.74;100.00
29505;BME280;16452;54.174;12.092;2023-01-27T08:18:31;102712.63;;;4.55;100.00
29505;BME280;16452;54.174;12.092;2023-01-27T08:21:03;102710.97;;;4.72;100.00
29505;BME280;16452;54.174;12.092;2023-01-27T08:23:30;102711.00;;;4.80;100.00
29505;BME280;16452;54.174;12.092;2023-01-27T08:25:58;102717.88;;;4.81;100.00
29505;BME280;16452;54.174;12.092;2023-01-27T08:28:26;102725.69;;;5.08;99.56
29505;BME280;16452;54.174;12.092;2023-01-27T08:30:52;102731.66;;;4.90;100.00
29505;BME280;16452;54.174;12.092;2023-01-27T08:33:22;102721.41;;;5.06;99.55
29505;BME280;16452;54.174;12.092;2023-01-27T08:35:49;102723.13;;;5.11;98.64
29505;BME280;16452;54.174;12.092;2023-01-27T08:38:17;102737.75;;;5.03;98.26
29505;BME280;16452;54.174;12.092;2023-01-27T08:40:46;102744.63;;;5.07;99.35
29505;BME280;16452;54.174;12.092;2023-01-27T08:43:12;102736.00;;;4.91;99.35
29505;BME280;16452;54.174;12.092;2023-01-27T08:45:40;102735.19;;;5.06;98.85
29505;BME280;16452;54.174;12.092;2023-01-27T08:48:05;102737.78;;;5.15;98.21
29505;BME280;16452;54.174;12.092;2023-01-27T08:50:32;102736.00;;;5.07;100.00
29505;BME280;16452;54.174;12.092;2023-01-27T08:52:58;102742.84;;;4.89;97.08
29505;BME280;16452;54.174;12.092;2023-01-27T08:55:30;102748.91;;;4.93;97.59
29505;BME280;16452;54.174;12.092;2023-01-27T08:57:56;102744.59;;;4.95;97.01
29505;BME280;16452;54.174;12.092;2023-01-27T09:00:22;102737.72;;;4.97;94.96
29505;BME280;16452;54.174;12.092;2023-01-27T09:02:48;102738.63;;;5.01;95.97
29505;BME280;16452;54.174;12.092;2023-01-27T09:05:18;102748.06;;;4.97;95.93
29505;BME280;16452;54.174;12.092;2023-01-27T09:07:45;102748.97;;;5.16;97.11
29505;BME280;16452;54.174;12.092;2023-01-27T09:10:12;102750.63;;;5.02;96.14
29505;BME280;16452;54.174;12.092;2023-01-27T09:12:39;102748.91;;;4.96;95.05
29505;BME280;16452;54.174;12.092;2023-01-27T09:15:06;102754.97;;;5.07;94.69
29505;BME280;16452;54.174;12.092;2023-01-27T09:17:32;102754.09;;;4.97;92.88
29505;BME280;16452;54.174;12.092;2023-01-27T09:20:00;102757.56;;;5.06;91.37
29505;BME280;16452;54.174;12.092;2023-01-27T09:22:26;102766.22;;;5.29;92.19
29505;BME280;16452;54.174;12.092;2023-01-27T09:24:51;102765.28;;;4.93;89.33
29505;BME280;16452;54.174;12.092;2023-01-27T09:27:17;102768.72;;;4.94;90.62
29505;BME280;16452;54.174;12.092;2023-01-27T09:29:43;102771.25;;;4.82;88.72
29505;BME280;16452;54.174;12.092;2023-01-27T09:32:09;102761.00;;;5.00;88.84
29505;BME280;16452;54.174;12.092;2023-01-27T09:34:38;102766.97;;;4.93;88.98
29505;BME280;16452;54.174;12.092;2023-01-27T09:37:09;102768.63;;;4.73;86.29
29505;BME280;16452;54.174;12.092;2023-01-27T09:39:50;102770.41;;;4.87;86.73
29505;BME280;16452;54.174;12.092;2023-01-27T10:06:23;102792.03;;;5.20;80.15
29505;BME280;16452;54.174;12.092;2023-01-27T10:15:05;102780.88;;;5.37;81.47
29505;BME280;16452;54.174;12.092;2023-01-27T10:17:45;102780.00;;;5.34;81.75
29505;BME280;16452;54.174;12.092;2023-01-27T10:26:41;102785.13;;;5.10;79.76
29505;BME280;16452;54.174;12.092;2023-01-27T10:29:24;102774.78;;;5.11;79.84
29505;BME280;16452;54.174;12.092;2023-01-27T10:32:26;102786.00;;;5.18;81.12
29505;BME280;16452;54.174;12.092;2023-01-27T10:40:32;102772.22;;;5.19;78.43
29505;BME280;16452;54.174;12.092;2023-01-27T10:43:02;102772.22;;;5.16;78.27
29505;BME280;16452;54.174;12.092;2023-01-27T10:45:45;102771.31;;;4.99;77.78
29505;BME280;16452;54.174;12.092;2023-01-27T10:48:53;102767.06;;;5.20;78.36
29505;BME280;16452;54.174;12.092;2023-01-27T10:51:35;102768.75;;;5.08;78.09
29505;BME280;16452;54.174;12.092;2023-01-27T10:54:30;102773.94;;;5.11;77.81
29505;BME280;16452;54.174;12.092;2023-01-27T10:56:59;102765.31;;;5.15;78.67
29505;BME280;16452;54.174;12.092;2023-01-27T10:59:41;102757.63;;;5.33;77.98
29505;BME280;16452;54.174;12.092;2023-01-27T11:04:45;102772.25;;;5.29;77.54
29505;BME280;16452;54.174;12.092;2023-01-27T11:07:20;102771.38;;;5.26;75.77
29505;BME280;16452;54.174;12.092;2023-01-27T11:12:33;102761.03;;;5.18;77.32
29505;BME280;16452;54.174;12.092;2023-01-27T11:17:52;102766.22;;;5.23;77.20
29505;BME280;16452;54.174;12.092;2023-01-27T11:20:29;102762.78;;;5.22;78.23
29505;BME280;16452;54.174;12.092;2023-01-27T11:23:16;102753.25;;;5.06;77.60
29505;BME280;16452;54.174;12.092;2023-01-27T11:29:18;102764.47;;;5.22;77.18
29505;BME280;16452;54.174;12.092;2023-01-27T11:32:29;102759.34;;;5.49;76.71
29505;BME280;16452;54.174;12.092;2023-01-27T11:35:11;102758.47;;;5.36;76.69
29505;BME280;16452;54.174;12.092;2023-01-27T11:37:42;102758.50;;;5.49;75.64
29505;BME280;16452;54.174;12.092;2023-01-27T11:40:39;102752.47;;;5.68;75.86
29505;BME280;16452;54.174;12.092;2023-01-27T11:43:06;102755.94;;;5.47;75.54
29505;BME280;16452;54.174;12.092;2023-01-27T11:45:35;102754.19;;;5.45;77.19
29505;BME280;16452;54.174;12.092;2023-01-27T11:48:06;102752.47;;;5.45;75.49
29505;BME280;16452;54.174;12.092;2023-01-27T11:50:35;102760.25;;;5.59;78.73
29505;BME280;16452;54.174;12.092;2023-01-27T11:56:00;102736.09;;;5.49;80.56
29505;BME280;16452;54.174;12.092;2023-01-27T12:01:46;102744.72;;;5.54;77.84
29505;BME280;16452;54.174;12.092;2023-01-27T12:04:40;102741.25;;;5.54;78.09
29505;BME280;16452;54.174;12.092;2023-01-27T12:10:02;102751.63;;;5.57;77.51
29505;BME280;16452;54.174;12.092;2023-01-27T12:12:28;102742.97;;;5.44;78.08
29505;BME280;16452;54.174;12.092;2023-01-27T12:14:56;102753.31;;;5.43;79.04
29505;BME280;16452;54.174;12.092;2023-01-27T12:17:39;102744.69;;;5.27;78.54
29505;BME280;16452;54.174;12.092;2023-01-27T12:20:30;102742.09;;;5.25;78.36
29505;BME280;16452;54.174;12.092;2023-01-27T12:23:03;102740.41;;;5.29;79.11
29505;BME280;16452;54.174;12.092;2023-01-27T12:25:44;102742.97;;;5.36;77.69
29505;BME280;16452;54.174;12.092;2023-01-27T12:28:38;102742.97;;;5.32;79.71
29505;BME280;16452;54.174;12.092;2023-01-27T12:31:23;102751.59;;;5.48;79.81
29505;BME280;16452;54.174;12.092;2023-01-27T12:34:04;102739.53;;;5.54;77.85
29505;BME280;16452;54.174;12.092;2023-01-27T12:36:41;102736.97;;;5.59;79.47
29505;BME280;16452;54.174;12.092;2023-01-27T12:39:30;102718.84;;;5.77;77.63
29505;BME280;16452;54.174;12.092;2023-01-27T12:41:57;102730.91;;;5.60;77.78
29505;BME280;16452;54.174;12.092;2023-01-27T12:44:23;102713.66;;;5.83;76.84
29505;BME280;16452;54.174;12.092;2023-01-27T12:47:02;102720.59;;;5.95;74.59
29505;BME280;16452;54.174;12.092;2023-01-27T12:49:36;102722.31;;;5.91;74.68
29505;BME280;16452;54.174;12.092;2023-01-27T12:52:18;102718.00;;;5.78;76.98
29505;BME280;16452;54.174;12.092;2023-01-27T12:54:45;102718.88;;;5.69;76.66
29505;BME280;16452;54.174;12.092;2023-01-27T12:57:19;102719.72;;;5.85;75.31
29505;BME280;16452;54.174;12.092;2023-01-27T12:59:55;102730.94;;;5.45;75.81
29505;BME280;16452;54.174;12.092;2023-01-27T13:02:25;102721.47;;;5.53;73.72
29505;BME280;16452;54.174;12.092;2023-01-27T13:05:00;102720.56;;;5.26;74.23
29505;BME280;16452;54.174;12.092;2023-01-27T13:07:37;102716.25;;;5.21;74.41
29505;BME280;16452;54.174;12.092;2023-01-27T13:10:14;102721.44;;;5.33;72.50
29505;BME280;16452;54.174;12.092;2023-01-27T13:12:56;102709.38;;;5.50;73.18
29505;BME280;16452;54.174;12.092;2023-01-27T13:15:30;102718.00;;;5.35;73.35
29505;BME280;16452;54.174;12.092;2023-01-27T13:18:12;102707.69;;;5.46;73.45
29505;BME280;16452;54.174;12.092;2023-01-27T13:20:43;102708.53;;;5.34;73.91
29505;BME280;16452;54.174;12.092;2023-01-27T13:23:33;102717.16;;;5.41;74.36
29505;BME280;16452;54.174;12.092;2023-01-27T13:29:11;102716.28;;;5.47;76.38
29505;BME280;16452;54.174;12.092;2023-01-27T13:32:04;102713.72;;;5.47;75.94
29505;BME280;16452;54.174;12.092;2023-01-27T13:34:53;102716.28;;;5.41;74.63
29505;BME280;16452;54.174;12.092;2023-01-27T13:37:50;102713.69;;;5.37;75.21
29505;BME280;16452;54.174;12.092;2023-01-27T13:40:30;102712.00;;;5.53;76.79
29505;BME280;16452;54.174;12.092;2023-01-27T13:43:24;102710.25;;;5.51;76.97
29505;BME280;16452;54.174;12.092;2023-01-27T13:45:56;102705.06;;;5.38;77.06
29505;BME280;16452;54.174;12.092;2023-01-27T13:48:26;102700.75;;;5.31;76.24
29505;BME280;16452;54.174;12.092;2023-01-27T13:51:18;102695.59;;;5.44;76.50
29505;BME280;16452;54.174;12.092;2023-01-27T13:53:46;102698.19;;;5.53;75.38
29505;BME280;16452;54.174;12.092;2023-01-27T14:02:26;102711.13;;;5.75;77.04
29505;BME280;16452;54.174;12.092;2023-01-27T14:08:11;102709.38;;;5.82;74.27
29505;BME280;16452;54.174;12.092;2023-01-27T14:11:16;102722.31;;;5.74;72.87
29505;BME280;16452;54.174;12.092;2023-01-27T14:17:08;102720.59;;;5.58;70.70
29505;BME280;16452;54.174;12.092;2023-01-27T14:28:34;102718.84;;;5.66;69.75
29505;BME280;16452;54.174;12.092;2023-01-27T14:31:05;102732.66;;;5.56;69.82
29505;BME280;16452;54.174;12.092;2023-01-27T14:33:52;102736.06;;;5.17;71.29
29505;BME280;16452;54.174;12.092;2023-01-27T14:36:28;102733.53;;;5.42;71.91
29505;BME280;16452;54.174;12.092;2023-01-27T14:39:26;102735.25;;;5.56;71.48
29505;BME280;16452;54.174;12.092;2023-01-27T14:42:10;102726.63;;;5.57;71.12
29505;BME280;16452;54.174;12.092;2023-01-27T14:45:11;102732.66;;;5.56;72.48
29505;BME280;16452;54.174;12.092;2023-01-27T14:53:37;102735.25;;;5.47;72.07